Terminal Aerodrome Forecast
Issued by NWS

Current Version | Previous Version | Text Only | Print | Product List | Glossary Off
Versions: 1 2 3 4 5 6 7 8 9 10 11 12 13 14 15 16 17 18 19 20 21 22 23 24 25

000
FTUS41 KPBZ 261138
TAFMGW
TAF
KMGW 261138Z 2612/2712 12003KT P6SM BKN060
     FM261900 15010G18KT 3SM -SHRA OVC035
     FM270000 15005KT 3SM -SHRA BR OVC025=

USA.gov is the U.S. government's official web portal to all federal, state and local government web resources and services.